Time;durP1;ratioP1;P1;durP2;ratioP2;P2;SDS_P1;SDS_P2;PMS_P1;PMS_P2;Temp;Humidity;BMP_temperature;BMP_pressure;BME280_temperature;BME280_humidity;BME280_pressure;Samples;Min_cycle;Max_cycle;Signal;HPM_P1;HPM_P2
2024/01/11 00:02:22;;;;;;;349.52;149.48;;;;;;;-8.13;87.84;100938.59;5051422;28;20264;-88
2024/01/11 00:04:47;;;;;;;365.38;151.43;;;;;;;-8.13;88.11;100944.53;5051391;28;20020;-89
2024/01/11 00:07:14;;;;;;;352.05;150.90;;;;;;;-8.30;87.67;100912.47;5050634;28;20560;-89
2024/01/11 00:09:42;;;;;;;335.00;142.35;;;;;;;-8.24;87.68;100917.00;5051341;28;20119;-89
2024/01/11 00:12:07;;;;;;;320.20;134.98;;;;;;;-8.25;87.67;100921.19;5046463;28;20029;-89
2024/01/11 00:14:33;;;;;;;331.80;141.07;;;;;;;-8.05;87.99;100945.78;5053543;28;20029;-89
2024/01/11 00:16:58;;;;;;;318.35;131.88;;;;;;;-8.10;87.75;100933.69;5057357;28;20021;-88
2024/01/11 00:19:24;;;;;;;302.98;128.88;;;;;;;-8.29;87.60;100911.72;5057958;28;20035;-89
2024/01/11 00:21:49;;;;;;;292.83;125.57;;;;;;;-8.14;88.14;100934.31;5057858;28;20364;-89
2024/01/11 00:24:15;;;;;;;308.70;132.63;;;;;;;-8.30;87.94;100903.28;5057793;28;20028;-88
2024/01/11 00:26:41;;;;;;;312.13;129.23;;;;;;;-8.10;87.51;100936.22;5058022;28;20479;-89
2024/01/11 00:29:07;;;;;;;318.00;132.85;;;;;;;-8.18;87.92;100938.34;5058965;28;20028;-89
2024/01/11 00:31:32;;;;;;;313.98;131.52;;;;;;;-8.43;87.83;100890.84;5057846;28;20345;-89
2024/01/11 00:33:58;;;;;;;324.15;130.68;;;;;;;-8.27;88.04;100926.94;5059096;28;20388;-88
2024/01/11 00:36:23;;;;;;;305.85;123.95;;;;;;;-8.47;88.15;100872.94;5057873;28;20021;-88
2024/01/11 00:38:49;;;;;;;305.48;129.07;;;;;;;-8.39;88.08;100899.44;5057822;28;20021;-89
2024/01/11 00:41:14;;;;;;;298.52;127.45;;;;;;;-8.18;87.75;100924.84;5058532;28;20032;-89
2024/01/11 00:43:40;;;;;;;307.23;127.30;;;;;;;-8.13;88.20;100929.38;5057751;28;20031;-88
2024/01/11 00:46:06;;;;;;;301.48;123.35;;;;;;;-8.22;87.70;100928.03;5036017;28;20079;-89
2024/01/11 00:48:32;;;;;;;290.63;122.75;;;;;;;-8.22;88.10;100916.25;5036480;28;20099;-88
2024/01/11 00:50:57;;;;;;;330.08;136.52;;;;;;;-8.22;87.90;100920.44;5036343;28;20041;-88
2024/01/11 00:53:23;;;;;;;324.65;135.00;;;;;;;-8.41;88.16;100881.69;5039594;28;20029;-89
2024/01/11 00:55:49;;;;;;;296.45;124.13;;;;;;;-8.53;88.51;100858.34;5023790;28;20116;-89
2024/01/11 00:58:14;;;;;;;297.98;122.93;;;;;;;-8.26;88.30;100900.88;5019345;28;20035;-89
2024/01/11 01:00:40;;;;;;;286.38;121.97;;;;;;;-8.27;88.37;100901.66;5019480;28;20059;-89
2024/01/11 01:03:06;;;;;;;306.60;126.60;;;;;;;-8.61;88.73;100835.22;5019428;28;20474;-90
2024/01/11 01:05:32;;;;;;;295.75;124.93;;;;;;;-8.34;88.63;100895.47;5035967;28;20037;-89
2024/01/11 01:07:57;;;;;;;297.90;122.22;;;;;;;-8.55;87.92;100853.22;5035730;28;20049;-89
2024/01/11 01:10:24;;;;;;;286.63;125.65;;;;;;;-8.19;88.28;100902.91;5019844;28;20411;-89
2024/01/11 01:12:49;;;;;;;306.13;126.72;;;;;;;-8.17;88.29;100906.41;5036028;28;20037;-89
2024/01/11 01:15:14;;;;;;;292.20;121.88;;;;;;;-8.17;88.08;100898.81;5035766;28;20049;-89
2024/01/11 01:17:40;;;;;;;290.17;124.20;;;;;;;-8.17;88.61;100888.72;5066316;28;20386;-89
2024/01/11 01:20:06;;;;;;;304.88;126.20;;;;;;;-8.26;88.43;100895.81;5059325;28;20036;-89
2024/01/11 01:22:31;;;;;;;279.65;115.88;;;;;;;-8.31;88.09;100882.97;5059612;28;20458;-89
2024/01/11 01:24:57;;;;;;;280.52;120.03;;;;;;;-8.43;88.47;100859.66;5059164;28;20037;-89
2024/01/11 01:27:25;;;;;;;264.65;113.10;;;;;;;-8.27;88.41;100878.94;5055459;28;20028;-89
2024/01/11 01:29:50;;;;;;;272.13;117.53;;;;;;;-8.18;88.98;100884.41;5056197;28;20067;-89
2024/01/11 01:32:15;;;;;;;276.75;118.03;;;;;;;-8.49;88.64;100839.16;5032470;28;20120;-89
2024/01/11 01:34:41;;;;;;;273.92;116.93;;;;;;;-8.40;88.69;100867.38;5032967;28;20481;-89
2024/01/11 01:37:07;;;;;;;281.88;121.18;;;;;;;-8.23;89.03;100883.34;5032435;28;20034;-89
2024/01/11 01:39:38;;;;;;;281.67;117.38;;;;;;;-8.24;88.44;100884.13;5016061;28;20041;-89
2024/01/11 01:42:04;;;;;;;285.65;118.50;;;;;;;-8.29;88.74;100897.41;5015875;28;20135;-89
2024/01/11 01:44:30;;;;;;;280.65;116.93;;;;;;;-8.26;89.16;100895.81;5032674;28;20499;-90
2024/01/11 01:46:55;;;;;;;293.52;125.78;;;;;;;-8.24;88.61;100901.84;5015734;28;20128;-90
2024/01/11 01:49:22;;;;;;;289.92;120.75;;;;;;;-8.35;89.07;100876.88;5032468;28;20052;-90
2024/01/11 01:51:48;;;;;;;284.30;117.80;;;;;;;-8.17;88.69;100897.16;5032600;28;20039;-90
2024/01/11 01:54:15;;;;;;;288.30;118.25;;;;;;;-8.34;88.75;100887.88;5032403;28;20583;-89
2024/01/11 01:56:40;;;;;;;283.90;120.50;;;;;;;-8.32;88.41;100907.38;5031219;28;20052;-90
2024/01/11 01:59:06;;;;;;;272.27;115.70;;;;;;;-8.38;89.04;100899.53;5032416;28;20025;-90
2024/01/11 02:01:34;;;;;;;298.35;122.90;;;;;;;-8.52;89.29;100884.47;5032215;28;20037;-90
2024/01/11 02:03:59;;;;;;;282.48;118.35;;;;;;;-8.56;89.33;100875.88;5048265;28;20029;-89
2024/01/11 02:06:29;;;;;;;293.15;123.13;;;;;;;-8.41;89.02;100881.69;5035325;28;20175;-90
2024/01/11 02:08:56;;;;;;;283.75;119.63;;;;;;;-8.61;89.50;100839.41;5032329;28;20048;-89
2024/01/11 02:11:23;;;;;;;277.65;114.22;;;;;;;-8.50;89.44;100861.03;5015733;28;20405;-90
2024/01/11 02:13:50;;;;;;;282.63;116.38;;;;;;;-8.67;89.23;100834.94;5032433;28;20041;-90
2024/01/11 02:16:16;;;;;;;300.65;122.22;;;;;;;-8.38;89.35;100883.50;5032027;28;20148;-89
2024/01/11 02:18:42;;;;;;;281.90;115.10;;;;;;;-8.45;89.87;100857.06;5032288;28;20079;-89
2024/01/11 02:21:15;;;;;;;282.02;115.88;;;;;;;-8.29;89.66;100872.16;5031581;28;20449;-89
2024/01/11 02:23:46;;;;;;;277.05;111.88;;;;;;;-8.36;89.40;100867.56;5031980;28;20056;-89
2024/01/11 02:26:15;;;;;;;267.80;111.32;;;;;;;-8.31;89.35;100871.19;5015112;28;20478;-89
2024/01/11 02:28:44;;;;;;;259.52;110.65;;;;;;;-8.43;89.45;100840.31;5032200;28;20038;-89
2024/01/11 02:31:11;;;;;;;252.85;106.60;;;;;;;-8.52;89.34;100812.06;5014988;28;20082;-89
2024/01/11 02:33:36;;;;;;;264.52;107.75;;;;;;;-8.29;89.24;100836.78;5050501;28;20484;-90
2024/01/11 02:36:04;;;;;;;266.48;111.70;;;;;;;-8.19;89.17;100838.06;5034915;28;20035;-89
2024/01/11 02:38:30;;;;;;;270.33;114.88;;;;;;;-8.19;89.03;100825.44;5051508;28;20043;-89
2024/01/11 02:40:56;;;;;;;258.05;111.78;;;;;;;-8.32;89.26;100800.38;5067628;28;20075;-89
2024/01/11 02:43:21;;;;;;;254.15;110.30;;;;;;;-8.27;88.99;100806.50;5051114;28;20036;-89
2024/01/11 02:45:47;;;;;;;265.10;109.25;;;;;;;-8.25;89.03;100812.50;5034657;28;20070;-89
2024/01/11 02:48:12;;;;;;;250.05;107.10;;;;;;;-8.26;89.00;100822.53;5034415;28;20040;-89
2024/01/11 02:50:38;;;;;;;247.75;103.50;;;;;;;-8.29;89.20;100821.59;5051742;28;20040;-89
2024/01/11 02:53:03;;;;;;;285.30;117.68;;;;;;;-8.27;89.29;100818.28;5034497;28;20606;-89
2024/01/11 02:55:28;;;;;;;260.00;115.82;;;;;;;-8.37;89.14;100817.88;5051235;28;20096;-89
2024/01/11 02:57:54;;;;;;;269.42;117.63;;;;;;;-8.42;88.95;100803.31;5034521;28;20036;-89
2024/01/11 03:00:19;;;;;;;260.02;112.93;;;;;;;-8.59;89.06;100770.53;5034171;28;20041;-89
2024/01/11 03:02:45;;;;;;;250.38;108.63;;;;;;;-8.42;88.99;100798.25;5051286;28;20037;-89
2024/01/11 03:05:10;;;;;;;256.73;104.78;;;;;;;-8.33;88.59;100814.66;5034295;28;20450;-89
2024/01/11 03:07:36;;;;;;;264.67;109.80;;;;;;;-8.32;88.68;100803.75;5034559;28;20041;-89
2024/01/11 03:10:01;;;;;;;256.92;109.97;;;;;;;-8.23;88.84;100803.31;5034862;28;20033;-89
2024/01/11 03:12:27;;;;;;;232.80;101.13;;;;;;;-8.25;88.96;100820.09;5033468;28;20037;-89
2024/01/11 03:14:52;;;;;;;230.70;96.63;;;;;;;-8.25;89.03;100816.69;5045385;28;20051;-89
2024/01/11 03:17:19;;;;;;;250.70;102.82;;;;;;;-8.21;89.32;100823.63;5033992;28;20031;-89
2024/01/11 03:19:44;;;;;;;247.85;100.68;;;;;;;-8.17;89.13;100833.97;5050869;28;20579;-90
2024/01/11 03:22:12;;;;;;;265.52;109.72;;;;;;;-8.11;89.33;100839.28;5050486;28;20115;-89
2024/01/11 03:24:40;;;;;;;298.80;122.22;;;;;;;-8.25;89.17;100814.19;5034240;28;20387;-89
2024/01/11 03:27:06;;;;;;;288.15;125.13;;;;;;;-8.43;89.40;100782.19;5050729;28;20371;-89
2024/01/11 03:29:31;;;;;;;345.73;144.85;;;;;;;-8.30;89.44;100813.94;5070476;28;20036;-89
2024/01/11 03:31:57;;;;;;;303.00;128.70;;;;;;;-8.27;89.18;100809.03;5053769;28;20036;-89
2024/01/11 03:34:22;;;;;;;308.95;126.80;;;;;;;-8.15;89.09;100831.50;5053477;28;20434;-89
2024/01/11 03:36:47;;;;;;;328.90;140.18;;;;;;;-8.18;89.12;100819.56;5053792;28;20528;-88
2024/01/11 03:39:14;;;;;;;306.13;127.80;;;;;;;-8.18;88.87;100826.28;5053293;28;20057;-88
2024/01/11 03:41:45;;;;;;;311.63;129.50;;;;;;;-8.33;89.17;100796.97;5053679;28;20036;-88
2024/01/11 03:44:11;;;;;;;;;;;;;;;-8.05;88.79;100847.19;5054014;28;20028;-88
2024/01/11 03:46:37;;;;;;;313.80;128.32;;;;;;;-8.25;89.36;100807.47;5070299;28;19991;-88
2024/01/11 03:49:02;;;;;;;290.83;119.40;;;;;;;-8.04;89.18;100835.41;5029679;28;20041;-88
2024/01/11 03:51:27;;;;;;;271.30;111.75;;;;;;;-8.29;89.00;100800.53;5030525;28;20053;-89
2024/01/11 03:53:53;;;;;;;244.98;104.20;;;;;;;-8.07;89.00;100843.69;5030043;28;20033;-88
2024/01/11 03:56:19;;;;;;;229.05;101.57;;;;;;;-8.05;89.52;100837.06;5013557;28;20037;-88
2024/01/11 03:58:45;;;;;;;247.93;101.60;;;;;;;-8.11;89.20;100820.75;5013576;28;20441;-90
2024/01/11 04:01:13;;;;;;;220.43;94.82;;;;;;;-8.09;89.59;100809.03;5029890;28;20029;-89
2024/01/11 04:03:38;;;;;;;219.00;90.18;;;;;;;-8.11;89.20;100806.44;5013592;28;20056;-89
2024/01/11 04:06:04;;;;;;;226.23;95.72;;;;;;;-8.09;89.37;100809.91;5029748;28;20056;-90
2024/01/11 04:08:30;;;;;;;200.65;88.90;;;;;;;-8.00;89.55;100822.13;5029909;28;20524;-90
2024/01/11 04:10:55;;;;;;;199.70;88.00;;;;;;;-8.02;89.02;100821.16;5030284;28;20155;-90
2024/01/11 04:13:21;;;;;;;220.18;89.70;;;;;;;-7.99;89.67;100822.97;5013250;28;20034;-90
2024/01/11 04:15:46;;;;;;;204.13;87.28;;;;;;;-7.94;89.77;100824.06;5030125;28;20132;-90
2024/01/11 04:18:12;;;;;;;195.30;84.10;;;;;;;-8.02;89.98;100815.25;5030073;28;20036;-90
2024/01/11 04:20:37;;;;;;;194.32;82.03;;;;;;;-8.05;90.39;100809.25;5044851;28;20041;-90
2024/01/11 04:23:03;;;;;;;192.00;82.80;;;;;;;-7.86;90.07;100827.81;5050188;28;20140;-90
2024/01/11 04:25:29;;;;;;;186.00;81.45;;;;;;;-7.90;90.14;100808.22;5032977;28;20044;-89
2024/01/11 04:27:57;;;;;;;187.10;78.25;;;;;;;-7.86;89.88;100805.03;5049952;28;20040;-90
2024/01/11 04:30:22;;;;;;;199.75;85.43;;;;;;;-7.85;89.95;100797.53;5032923;28;20035;-90
2024/01/11 04:32:48;;;;;;;173.45;77.18;;;;;;;-7.91;90.56;100792.19;5046090;28;20029;-90
2024/01/11 04:35:13;;;;;;;184.65;81.35;;;;;;;-7.76;90.24;100811.38;5051047;28;20459;-90
2024/01/11 04:37:38;;;;;;;184.07;80.07;;;;;;;-7.79;90.55;100794.41;5051289;28;20376;-90
2024/01/11 04:40:07;;;;;;;176.10;78.75;;;;;;;-7.84;90.42;100781.56;5051223;28;20067;-89
2024/01/11 04:42:33;;;;;;;183.07;78.07;;;;;;;-7.72;90.40;100791.34;5051190;28;20055;-89
2024/01/11 04:44:59;;;;;;;182.93;79.15;;;;;;;-7.66;90.57;100783.19;5051050;28;20025;-89
2024/01/11 04:47:24;;;;;;;173.73;77.47;;;;;;;-7.55;90.75;100765.13;5050834;28;20021;-89
2024/01/11 04:49:49;;;;;;;189.60;80.50;;;;;;;-7.61;90.67;100734.53;5049561;28;20102;-90
2024/01/11 04:52:15;;;;;;;178.75;80.82;;;;;;;-7.40;91.12;100752.28;5032805;28;20036;-89
2024/01/11 04:54:40;;;;;;;171.23;76.90;;;;;;;-7.37;91.52;100744.84;5009964;28;20570;-90
2024/01/11 04:57:06;;;;;;;182.38;80.75;;;;;;;-7.36;91.23;100738.13;5010050;28;20117;-90
2024/01/11 04:59:31;;;;;;;172.65;78.00;;;;;;;-7.54;91.25;100702.78;5009960;28;20112;-89
2024/01/11 05:01:56;;;;;;;184.73;80.45;;;;;;;-7.15;91.09;100766.88;4994968;28;20116;-88
2024/01/11 05:04:22;;;;;;;185.05;82.80;;;;;;;-7.16;91.13;100754.13;5013363;28;20410;-88
2024/01/11 05:06:47;;;;;;;176.10;78.32;;;;;;;-7.38;91.14;100702.59;5013370;28;20057;-88
2024/01/11 05:09:13;;;;;;;178.38;77.55;;;;;;;-7.03;91.52;100747.13;4996892;28;20034;-88
2024/01/11 05:11:39;;;;;;;180.48;76.90;;;;;;;-6.99;91.78;100737.09;5013454;28;20436;-90
2024/01/11 05:14:05;;;;;;;177.02;77.57;;;;;;;-6.99;91.91;100722.81;5013373;28;20048;-88
2024/01/11 05:16:31;;;;;;;169.82;76.32;;;;;;;-7.01;92.10;100713.41;4997042;28;20029;-87
2024/01/11 05:18:57;;;;;;;170.02;70.47;;;;;;;-7.23;92.26;100663.56;4996958;28;20026;-87
2024/01/11 05:21:24;;;;;;;177.82;72.50;;;;;;;-6.88;92.11;100698.75;5011057;28;20041;-87
2024/01/11 05:23:49;;;;;;;166.00;74.10;;;;;;;-6.81;92.13;100685.53;5016760;28;20021;-87
2024/01/11 05:26:16;;;;;;;162.25;68.97;;;;;;;-6.80;93.09;100667.00;5044725;28;20032;-87
2024/01/11 05:28:42;;;;;;;187.23;85.38;;;;;;;-6.89;92.57;100660.72;5055484;28;20098;-89
2024/01/11 05:31:09;;;;;;;187.35;85.43;;;;;;;-6.64;92.75;100691.28;5054928;28;20460;-89
2024/01/11 05:33:35;;;;;;;198.40;87.55;;;;;;;-6.49;92.61;100723.94;5056172;28;20383;-88
2024/01/11 05:36:06;;;;;;;190.30;86.40;;;;;;;-6.59;92.07;100710.06;5055584;28;20021;-89
2024/01/11 05:38:33;;;;;;;180.52;80.88;;;;;;;-6.59;92.31;100716.78;5072559;28;20121;-88
2024/01/11 05:40:59;;;;;;;181.77;81.07;;;;;;;-6.69;92.11;100694.44;5039679;28;20131;-88
2024/01/11 05:43:26;;;;;;;169.88;79.15;;;;;;;-6.54;91.80;100713.63;5073148;28;20448;-88
2024/01/11 05:46:02;;;;;;;166.10;78.57;;;;;;;-6.49;92.15;100723.94;5056945;28;20029;-88
2024/01/11 05:48:27;;;;;;;165.68;72.65;;;;;;;-6.82;92.13;100675.38;5056809;28;20040;-88
2024/01/11 05:50:55;;;;;;;156.50;65.65;;;;;;;-6.50;92.11;100706.16;5073935;28;20122;-88
2024/01/11 05:53:22;;;;;;;137.82;61.80;;;;;;;-6.49;91.33;100703.66;5056519;28;20044;-88
2024/01/11 05:55:48;;;;;;;137.13;60.20;;;;;;;-6.42;90.81;100705.63;5057204;28;20024;-88
2024/01/11 05:58:13;;;;;;;128.60;56.13;;;;;;;-6.40;90.48;100682.91;5066061;28;20037;-88
2024/01/11 06:00:41;;;;;;;124.05;55.55;;;;;;;-6.39;89.88;100687.16;5073771;28;20116;-88
2024/01/11 06:03:07;;;;;;;135.52;59.28;;;;;;;-6.37;89.33;100690.59;5069753;28;20028;-88
2024/01/11 06:05:33;;;;;;;124.75;59.08;;;;;;;-6.37;89.09;100676.25;5103662;28;20040;-88
2024/01/11 06:07:59;;;;;;;131.75;56.22;;;;;;;-6.64;88.81;100622.00;5092040;28;20082;-88
2024/01/11 06:10:34;;;;;;;127.63;55.50;;;;;;;-6.57;88.52;100622.31;5053486;28;20539;-88
2024/01/11 06:13:00;;;;;;;120.05;52.92;;;;;;;-6.55;88.14;100640.94;5054232;28;20067;-88
2024/01/11 06:15:26;;;;;;;120.25;53.38;;;;;;;-6.47;87.99;100668.25;5031680;28;20037;-88
2024/01/11 06:17:51;;;;;;;121.05;56.33;;;;;;;-6.40;87.94;100686.31;5031870;28;20045;-88
2024/01/11 06:20:17;;;;;;;134.25;58.35;;;;;;;-6.36;87.47;100695.75;5031438;28;20553;-88
2024/01/11 06:22:46;;;;;;;129.65;55.85;;;;;;;-6.35;87.68;100706.75;5031774;28;20554;-88
2024/01/11 06:25:12;;;;;;;127.80;57.83;;;;;;;-6.45;87.06;100681.84;5031670;28;20503;-88
2024/01/11 06:27:49;;;;;;;128.55;56.15;;;;;;;-6.38;87.00;100693.94;5051410;28;20055;-88
2024/01/11 06:30:16;;;;;;;141.65;59.30;;;;;;;-6.33;86.55;100693.31;5018400;28;20047;-88
2024/01/11 06:32:43;;;;;;;125.40;57.88;;;;;;;-6.41;87.09;100673.53;5018448;28;20076;-88
2024/01/11 06:35:09;;;;;;;138.23;59.55;;;;;;;-6.66;86.80;100621.94;5034737;28;20029;-88
2024/01/11 06:37:35;;;;;;;134.38;61.25;;;;;;;-6.32;86.21;100684.91;5034424;28;20032;-88
2024/01/11 06:40:01;;;;;;;138.65;61.78;;;;;;;-6.31;86.55;100678.19;5051435;28;20163;-88
2024/01/11 06:42:26;;;;;;;133.30;61.42;;;;;;;-6.31;86.63;100668.91;5034252;28;20048;-88
2024/01/11 06:44:54;;;;;;;141.95;63.10;;;;;;;-6.28;86.61;100668.13;5051377;28;20183;-88
2024/01/11 06:47:22;;;;;;;140.23;64.88;;;;;;;-6.19;86.52;100682.81;5051030;28;20408;-88
2024/01/11 06:49:47;;;;;;;144.98;63.72;;;;;;;-6.16;86.86;100681.25;5033483;28;20048;-88
2024/01/11 06:52:13;;;;;;;145.15;64.13;;;;;;;-6.14;86.83;100679.66;5014639;28;20030;-88
2024/01/11 06:54:40;;;;;;;157.73;66.80;;;;;;;-6.45;86.52;100628.63;5031443;28;20033;-88
2024/01/11 06:57:05;;;;;;;149.48;67.05;;;;;;;-6.20;86.80;100668.41;5014639;28;20025;-88
2024/01/11 06:59:30;;;;;;;147.68;66.43;;;;;;;-6.14;86.91;100661.06;5014426;28;20038;-88
2024/01/11 07:01:56;;;;;;;168.43;68.78;;;;;;;-6.22;87.28;100635.41;5031054;28;20029;-88
2024/01/11 07:04:21;;;;;;;150.90;65.55;;;;;;;-6.15;86.70;100650.06;5014335;28;20037;-88
2024/01/11 07:06:47;;;;;;;162.48;68.28;;;;;;;-6.25;86.82;100611.63;5030645;28;20127;-88
2024/01/11 07:09:13;;;;;;;153.85;68.40;;;;;;;-6.19;86.75;100614.34;5014453;28;20373;-88
2024/01/11 07:11:38;;;;;;;147.32;64.15;;;;;;;-6.01;86.74;100637.00;5030806;28;20037;-88
2024/01/11 07:14:04;;;;;;;144.80;61.33;;;;;;;-5.97;86.58;100636.31;5030832;28;20047;-88
2024/01/11 07:16:30;;;;;;;139.82;63.28;;;;;;;-6.25;86.45;100576.97;5030641;28;20137;-88
2024/01/11 07:18:56;;;;;;;142.02;60.20;;;;;;;-6.00;86.36;100609.16;5030967;28;20079;-88
2024/01/11 07:21:29;;;;;;;137.70;61.67;;;;;;;-5.84;86.54;100605.44;5045268;28;20041;-88
2024/01/11 07:23:57;;;;;;;118.28;57.60;;;;;;;-5.98;86.04;100566.97;5051516;28;20024;-88
2024/01/11 07:26:26;;;;;;;124.32;59.33;;;;;;;-5.87;85.94;100578.28;5052086;28;20025;-88
2024/01/11 07:28:54;;;;;;;126.20;57.22;;;;;;;-5.68;85.32;100614.47;5053422;28;20035;-88
2024/01/11 07:31:20;;;;;;;127.28;55.08;;;;;;;-5.73;84.98;100609.22;5051849;28;20202;-88
2024/01/11 07:33:45;;;;;;;113.68;53.90;;;;;;;-5.66;84.14;100613.69;5052098;28;20043;-88
2024/01/11 07:36:11;;;;;;;122.22;55.30;;;;;;;-5.72;84.20;100603.34;5050299;28;20539;-88
2024/01/11 07:38:37;;;;;;;121.07;54.72;;;;;;;-5.98;83.92;100549.22;5050180;28;20044;-86
2024/01/11 07:41:02;;;;;;;114.50;52.00;;;;;;;-5.70;83.28;100601.69;5050446;28;20488;-86
2024/01/11 07:43:28;;;;;;;111.63;50.38;;;;;;;-5.89;83.16;100572.31;5051749;28;20031;-86
2024/01/11 07:45:56;;;;;;;119.50;51.35;;;;;;;-5.91;82.75;100556.16;5052035;28;20029;-88
2024/01/11 07:48:22;;;;;;;114.22;49.15;;;;;;;-5.53;82.49;100617.50;5033253;28;20037;-88
2024/01/11 07:50:48;;;;;;;104.10;48.17;;;;;;;-5.70;81.95;100589.00;5033582;28;20029;-88
2024/01/11 07:53:14;;;;;;;110.75;49.72;;;;;;;-5.55;81.56;100602.22;5033492;28;20167;-88
2024/01/11 07:55:40;;;;;;;108.50;46.63;;;;;;;-5.50;81.44;100578.66;5033640;28;20115;-86
2024/01/11 07:58:06;;;;;;;86.93;38.40;;;;;;;-5.31;80.65;100597.09;5033526;28;20029;-88
2024/01/11 08:00:32;;;;;;;101.38;45.78;;;;;;;-5.23;80.60;100581.22;5033192;28;20045;-88
2024/01/11 08:02:57;;;;;;;128.77;59.97;;;;;;;-5.05;79.39;100592.84;5033448;28;20167;-86
2024/01/11 08:05:22;;;;;;;89.93;40.95;;;;;;;-4.95;79.13;100598.19;5033398;28;20499;-88
2024/01/11 08:07:48;;;;;;;94.97;39.65;;;;;;;-4.79;78.28;100605.50;5033511;28;20048;-86
2024/01/11 08:10:13;;;;;;;93.68;40.35;;;;;;;-4.65;77.94;100603.34;5050224;28;20118;-87
2024/01/11 08:12:39;;;;;;;78.68;39.08;;;;;;;-4.74;77.39;100575.97;5049796;28;20361;-87
2024/01/11 08:15:04;;;;;;;78.45;36.55;;;;;;;-4.55;76.61;100602.78;5051400;28;20108;-87
2024/01/11 08:17:30;;;;;;;80.60;37.50;;;;;;;-4.44;76.07;100595.50;5052694;28;20025;-87
2024/01/11 08:19:56;;;;;;;76.93;36.95;;;;;;;-4.36;75.59;100596.59;5030447;28;20120;-87
2024/01/11 08:22:22;;;;;;;74.55;35.53;;;;;;;-4.32;75.26;100596.72;5030037;28;20033;-88
2024/01/11 08:24:48;;;;;;;72.32;33.78;;;;;;;-4.36;75.13;100601.66;5014135;28;20525;-88
2024/01/11 08:27:17;;;;;;;90.55;39.08;;;;;;;-4.43;74.51;100587.03;5030898;28;20032;-88
2024/01/11 08:29:42;;;;;;;85.72;38.97;;;;;;;-4.49;74.85;100561.47;5014026;28;20398;-87
2024/01/11 08:32:09;;;;;;;79.05;37.90;;;;;;;-4.70;74.42;100513.41;5030771;28;20108;-87
2024/01/11 08:34:37;;;;;;;84.85;41.10;;;;;;;-4.25;74.09;100591.81;5030202;28;20037;-87
2024/01/11 08:37:02;;;;;;;81.05;35.95;;;;;;;-4.20;73.97;100605.53;5017847;28;20030;-87
2024/01/11 08:39:29;;;;;;;78.55;37.22;;;;;;;-4.18;73.70;100608.94;5017864;28;20033;-88
2024/01/11 08:41:56;;;;;;;89.82;40.85;;;;;;;-4.40;73.55;100577.81;5034066;28;20034;-88
2024/01/11 08:44:23;;;;;;;79.50;37.78;;;;;;;-4.30;73.48;100579.84;5033849;28;20116;-88
2024/01/11 08:46:49;;;;;;;85.82;40.75;;;;;;;-4.15;73.55;100607.38;5034669;28;20057;-87
2024/01/11 08:49:14;;;;;;;85.50;37.95;;;;;;;-4.14;73.60;100605.69;5017421;28;20515;-88
2024/01/11 08:51:40;;;;;;;81.40;36.13;;;;;;;-4.04;73.00;100635.66;5063494;28;20487;-87
2024/01/11 08:54:08;;;;;;;73.85;35.35;;;;;;;-3.96;73.19;100633.31;5056438;28;20020;-87
2024/01/11 08:56:34;;;;;;;70.88;31.90;;;;;;;-4.02;73.05;100603.47;5053739;28;20500;-88
2024/01/11 08:58:59;;;;;;;70.03;34.40;;;;;;;-3.98;72.62;100609.50;5033642;28;20041;-87
2024/01/11 09:01:25;;;;;;;71.70;33.10;;;;;;;-3.89;72.94;100625.88;5033627;28;20029;-87
2024/01/11 09:03:50;;;;;;;76.28;36.72;;;;;;;-4.24;72.62;100565.56;5034118;28;20087;-87
2024/01/11 09:06:16;;;;;;;69.72;31.88;;;;;;;-3.94;72.48;100603.69;5033735;28;20025;-87
2024/01/11 09:08:46;;;;;;;78.45;36.38;;;;;;;-3.83;73.26;100617.56;5033647;28;20469;-86
2024/01/11 09:11:11;;;;;;;72.93;34.75;;;;;;;-3.78;72.81;100616.00;5017262;28;20057;-86
2024/01/11 09:13:36;;;;;;;65.40;30.25;;;;;;;-3.78;72.26;100616.00;5016875;28;20125;-87
2024/01/11 09:16:02;;;;;;;69.35;32.25;;;;;;;-3.72;72.31;100618.69;5016798;28;20033;-87
2024/01/11 09:18:29;;;;;;;69.68;33.33;;;;;;;-3.68;72.26;100615.41;5033637;28;20429;-87
2024/01/11 09:20:56;;;;;;;63.38;30.65;;;;;;;-3.58;71.81;100629.25;5016287;28;20033;-87
2024/01/11 09:23:23;;;;;;;64.82;31.05;;;;;;;-3.61;71.86;100612.22;5016397;28;20091;-87
2024/01/11 09:25:48;;;;;;;72.85;33.60;;;;;;;-3.69;71.71;100600.13;5016176;28;20033;-86
2024/01/11 09:28:15;;;;;;;78.00;32.97;;;;;;;-3.63;71.75;100608.75;5016224;28;20044;-87
2024/01/11 09:30:42;;;;;;;72.78;31.83;;;;;;;-3.51;72.14;100631.13;5012620;28;20033;-87
2024/01/11 09:33:09;;;;;;;78.53;35.40;;;;;;;-3.58;71.67;100606.31;5012846;28;20033;-87
2024/01/11 09:35:34;;;;;;;71.68;35.30;;;;;;;-3.45;71.95;100615.16;5012746;28;20441;-88
2024/01/11 09:38:00;;;;;;;72.15;32.53;;;;;;;-3.40;72.02;100613.59;5013054;28;20038;-87
2024/01/11 09:40:28;;;;;;;64.70;31.02;;;;;;;-3.32;72.25;100617.19;5028222;28;20025;-87
2024/01/11 09:42:55;;;;;;;78.38;35.42;;;;;;;-3.30;72.06;100615.53;5072524;28;20425;-87
2024/01/11 09:45:23;;;;;;;68.18;32.03;;;;;;;-3.24;72.02;100617.38;5052125;28;20040;-87
2024/01/11 09:47:51;;;;;;;73.93;35.88;;;;;;;-3.19;72.09;100613.25;5057368;28;20029;-86
2024/01/11 09:50:21;;;;;;;72.70;35.92;;;;;;;-3.17;72.06;100612.47;5060107;28;20039;-87
2024/01/11 09:52:50;;;;;;;64.07;28.85;;;;;;;-3.23;71.72;100594.50;5052847;28;20063;-87
2024/01/11 09:55:33;;;;;;;67.75;33.13;;;;;;;-3.12;71.88;100592.19;5032200;28;20029;-87
2024/01/11 09:58:00;;;;;;;82.38;41.55;;;;;;;-3.04;72.09;100586.44;5016323;28;20056;-85
2024/01/11 10:00:30;;;;;;;80.38;37.55;;;;;;;-3.01;72.31;100594.16;5015847;28;20049;-85
2024/01/11 10:03:08;;;;;;;76.80;35.63;;;;;;;-3.15;72.02;100564.97;4995796;28;20026;-87
2024/01/11 10:05:36;;;;;;;78.63;34.58;;;;;;;-2.95;71.76;100584.94;4963525;28;20106;-87
2024/01/11 10:08:01;;;;;;;66.07;31.50;;;;;;;-3.03;71.78;100575.44;4956630;28;20070;-84
2024/01/11 10:10:28;;;;;;;77.20;35.28;;;;;;;-2.94;71.61;100577.34;4982599;28;20061;-87
2024/01/11 10:13:00;;;;;;;69.80;34.08;;;;;;;-3.03;71.97;100549.97;5010496;28;20129;-87
2024/01/11 10:15:26;;;;;;;69.20;34.65;;;;;;;-2.99;72.02;100544.91;5012062;28;20116;-87
2024/01/11 10:17:52;;;;;;;71.45;31.08;;;;;;;-2.89;72.30;100564.69;5010745;28;20486;-87
2024/01/11 10:20:23;;;;;;;71.45;34.33;;;;;;;-2.88;72.11;100553.66;4961644;28;20034;-87
2024/01/11 10:22:49;;;;;;;66.30;31.35;;;;;;;-2.96;72.08;100540.75;5007979;28;20074;-86
2024/01/11 10:25:17;;;;;;;68.03;32.45;;;;;;;-3.17;72.25;100496.94;5010310;28;20045;-87
2024/01/11 10:27:45;;;;;;;64.70;31.90;;;;;;;-2.76;72.29;100552.25;4993842;28;20045;-87
2024/01/11 10:30:16;;;;;;;69.55;33.58;;;;;;;-2.72;72.12;100557.41;4994166;28;20521;-87
2024/01/11 10:32:45;;;;;;;74.95;35.90;;;;;;;-2.70;72.48;100559.16;5014484;28;20030;-87
2024/01/11 10:35:11;;;;;;;76.68;34.88;;;;;;;-2.65;72.33;100566.94;5007345;28;20025;-87
2024/01/11 10:37:38;;;;;;;81.10;34.72;;;;;;;-2.68;72.57;100549.00;5020044;28;20018;-87
2024/01/11 10:40:09;;;;;;;72.32;35.17;;;;;;;-2.65;72.72;100549.94;5002689;28;20064;-87
2024/01/11 10:42:37;;;;;;;65.78;31.38;;;;;;;-2.68;72.77;100549.88;5011503;28;20112;-87
2024/01/11 10:45:06;;;;;;;69.22;33.00;;;;;;;-2.61;72.43;100559.38;5031385;28;20102;-87
2024/01/11 10:47:35;;;;;;;73.18;33.15;;;;;;;-2.51;72.71;100571.47;5014600;28;20033;-87
2024/01/11 10:50:02;;;;;;;73.47;34.75;;;;;;;-2.46;72.88;100569.03;5014774;28;20082;-87
2024/01/11 10:52:34;;;;;;;68.82;32.20;;;;;;;-2.55;72.72;100543.34;5030994;28;20026;-86
2024/01/11 10:55:01;;;;;;;65.30;31.13;;;;;;;-2.52;73.05;100551.06;5020307;28;20033;-87
2024/01/11 10:57:28;;;;;;;73.25;34.03;;;;;;;-2.48;72.83;100549.44;5070919;28;20054;-87
2024/01/11 10:59:55;;;;;;;69.70;34.10;;;;;;;-2.51;73.03;100545.97;5054264;28;20029;-87